Grand Meadow, MN (55936)

7:49 AM CDT on May 30, 2015 (GMT -0500)
MNDOT | | Change Station
CLOSE
Current Station
Personal Weather Station
Location: Dexter, MN
Elevation: 1410 ft
Nearby Weather Stations

Elev 1410 ft 43.73 °N, 92.68 °W | Updated 23 minutes ago

Overcast
Overcast
50 °F
Feels Like 44 °F
N
16
Wind Variable Wind from North
Gusts 23.0 mph

Today
High -- | Low -- °F
--% Chance of Precip.
Yesterday
High -- | Low -- °F
Precip. -- in
5:32 AM 8:43 PM
Waxing Gibbous, 90% visible
Pressure 30.11 in
Visibility 10.0 miles
Clouds Overcast 1300 ft
Windchill 44 °F
Dew Point 48 °F
Humidity 94%
Rainfall in
Snow Depth Not available.
UV 0 out of 12
Pollen 7.10 out of 12
Air Quality Not available.
Flu Activity Sporadic
METAR KRST 301154Z AUTO 01015KT 10SM OVC013 10/08 A3010 RMK AO2 SLP194 60002 70056 T01000083 10133 20100 51022

More Conditions Fewer Conditions

Pressure 30.11 in
Visibility 10.0 miles
Clouds Overcast 1300 ft
Windchill 44 °F
Dew Point 48 °F
Humidity 94%
Rainfall in
Snow Depth Not available.
UV 0 out of 12
Pollen 7.10 out of 12
Air Quality Not available.
Flu Activity Sporadic
METAR KRST 301154Z AUTO 01015KT 10SM OVC013 10/08 A3010 RMK AO2 SLP194 60002 70056 T01000083 10133 20100 51022

More Conditions Fewer Conditions

10-Day Weather Forecast

Almanac

Astronomy

May. 30, 2015 Rise Set
Actual Time
Civil Twilight
Nautical Twilight
Astronomical Twilight
Moon
Length of Visible Light
Length of Day
Tomorrow will be .
, % of the Moon is Illuminated

Today's Extremes

State Highs State Lows

Community

WunderPhotos

Upload Photos

1,825,498 photos uploaded!

WunderBlogs® & News

Nearby

Air Quality

  Air Quality AQ Index Pollutant
Not available.

Snow Depth

Station Depth Elevation

Earthquake Activity

City Distance Mag. Time & Date
Minimum magnitude displayed is 2.5.

Coastal Water Temperatures

Place Temperature

Stations

Nearby Weather Stations

Station Location Temp. Windchill Dew Point Humidity Wind Precip. Elev Updated Type